Partageons !

C’est pas bon…mais alors pas bon du tout.

A Durbuy, nous sommes les champions de la pollution CO2 avec 456 partie par million (PPM) alors que la quantité maximale mondiale n’aurait jamais dû dépasser 350 PPM
Les chiffres mondiaux actuels est de 417 PPM (Source : https://climate.nasa.gov/vital-signs/carbon-dioxide/)

Voici les stats du mois à Grandhan.

Time Temp(℃) Humi(%RH) DP(℃) CO2(PPM)
07-01-21 00:47:42 14,9 87,3 44,8 424
07-01-21 02:47:42 14,4 88,3 44,9 428
07-01-21 04:47:42 14,1 89,1 45 426
07-01-21 06:47:42 14 88,6 44,5 421
07-01-21 08:47:42 14,2 89,7 45,6 411
07-01-21 10:47:42 15,1 87,1 44,9 409
07-01-21 12:47:42 15,7 83,2 42,7 407
07-01-21 14:47:42 17,2 80,8 42,6 403
07-01-21 16:47:42 19,3 73,2 38,8 401
07-01-21 18:47:42 20 74,8 40,7 402
07-01-21 20:47:42 19,7 77,2 42,3 405
07-01-21 22:47:42 16,6 80,6 41,7 461
07-02-21 00:47:42 13,9 83,2 40,4 490
07-02-21 02:47:42 12,7 85,2 40,1 491
07-02-21 04:47:42 12,2 85,5 39,6 487
07-02-21 06:47:42 12,4 86,4 40,6 488
07-02-21 08:47:42 14,6 87 44,1 454
07-02-21 10:47:42 20 72,6 39 409
07-02-21 12:47:42 23,3 67,3 37,5 406
07-02-21 14:47:42 26 61,4 34,7 405
07-02-21 16:47:42 27,7 55,6 31 408
07-02-21 18:47:42 26,5 60,1 34 413
07-02-21 20:47:42 24,2 67 38 421
07-02-21 22:47:42 20,3 71,8 38,6 525
07-03-21 00:47:42 17,4 76,2 39,2 514
07-03-21 02:47:42 15,5 79,2 39,4 628
07-03-21 04:47:42 14,3 81 39,2 558
07-03-21 06:47:42 13,8 82,4 39,6 540
07-03-21 08:47:42 21,6 79,1 45,6 435
07-03-21 10:47:42 25,9 61,6 34,8 413
07-03-21 12:47:42 26,3 64,2 37,2 406
07-03-21 14:47:42 27,8 53,1 28,9 399
07-03-21 16:47:42 26,7 59,7 33,8 402
07-03-21 18:47:42 26,3 62,9 36,1 400
07-03-21 20:47:42 24,9 66,2 37,9 426
07-03-21 22:47:42 22,6 74 42,4 473
07-04-21 00:47:42 21,2 76,8 43,4 590
07-04-21 02:47:42 20,4 80 45,2 568
07-04-21 04:47:42 19,8 81,2 45,6 573
07-04-21 06:47:42 18 81,3 43,8 590
07-04-21 08:47:42 23,6 75,5 44,4 476
07-04-21 10:47:42 26,9 61,8 35,6 419
07-04-21 12:47:42 24,5 60,6 33 410
07-04-21 14:47:42 20,5 73,3 40 405
07-04-21 16:47:42 21,5 70,1 38,3 403
07-04-21 18:47:42 22,9 63,3 34 402
07-04-21 20:47:42 21,9 65,5 34,9 402
07-04-21 22:47:42 19,9 70,2 37 450
07-05-21 00:47:42 18,3 76,2 40,2 483
07-05-21 02:47:42 18,7 79,1 42,8 513
07-05-21 04:47:42 16,4 81,1 41,9 418
07-05-21 06:47:42 16,4 81,6 42,3 442
07-05-21 08:47:42 18,2 78,8 42,1 412
07-05-21 10:47:42 18,4 74,7 39,1 405
07-05-21 12:47:42 19,4 76,1 41,2 409
07-05-21 14:47:42 21,5 79,5 45,9 403
07-05-21 16:47:42 25,4 72,4 43,3 415
07-05-21 18:47:42 23,2 75 43,7 406
07-05-21 20:47:42 22,1 76,1 43,7 423
07-05-21 22:47:42 20,3 79,5 44,7 433
07-06-21 00:47:42 19,8 80,2 44,8 435
07-06-21 02:47:42 19,3 80,4 44,5 435
07-06-21 04:47:42 19 80,3 44,1 426
07-06-21 06:47:42 18,6 86,3 48,4 417
07-06-21 08:47:42 17,7 87,2 48,1 416
07-06-21 10:47:42 18,5 80,5 43,7 409
07-06-21 12:47:42 21,1 64 33,1 407
07-06-21 14:47:42 21,4 58 28,5 407
07-06-21 16:47:42 21,3 56,5 27,2 410
07-06-21 18:47:42 21,9 53,9 25,5 409
07-06-21 20:47:42 20,8 57,7 27,7 410
07-06-21 22:47:42 19,6 64,5 32,2 447
07-07-21 00:47:42 16,1 71,9 34,5 538
07-07-21 02:47:42 15,2 76,7 37,1 562
07-07-21 04:47:42 13,8 77,9 36,2 560
07-07-21 06:47:42 13,4 79,2 36,7 530
07-07-21 08:47:42 21,8 67,3 36,3 427
07-07-21 10:47:42 22,8 54,1 26,4 416
07-07-21 12:47:42 25,7 48,9 24,1 413
07-07-21 14:47:42 23,3 56,2 28,5 410
07-07-21 16:47:42 24,7 51,4 25,5 412
07-07-21 18:47:42 24,8 50,4 24,7 410
07-07-21 20:47:42 23,1 58,1 29,9 422
07-07-21 22:47:42 20,6 68,3 36,1 544
07-08-21 00:47:42 17,8 72 36,4 528
07-08-21 02:47:42 15,9 74,5 36,2 550
07-08-21 04:47:42 14,7 76,5 36,3 623
07-08-21 06:47:42 13,6 79,3 37 635
07-08-21 08:47:42 16,9 78,3 40,3 528
07-08-21 10:47:42 19,9 73,1 39,3 460
07-08-21 12:47:42 22,6 70,6 39,7 429
07-08-21 14:47:42 26,4 57,9 32,1 408
07-08-21 16:47:42 24,3 56,8 29,7 408
07-08-21 18:47:42 23 67,7 37,6 409
07-08-21 20:47:42 21,7 73,5 41,2 415
07-08-21 22:47:42 19,5 75,8 41 565
07-09-21 00:47:42 17,4 78,5 41 546
07-09-21 02:47:42 16,2 78,9 40 581
07-09-21 04:47:42 15,2 79,7 39,4 548
07-09-21 06:47:42 14,9 82,3 41 539
07-09-21 08:47:42 17 83,5 44,4 464
07-09-21 10:47:42 20 77,6 42,9 436
07-09-21 12:47:42 26,9 57,3 31,9 416
07-09-21 14:47:42 27,8 51,1 27,3 415
07-09-21 16:47:42 25,1 57,5 30,8 406
07-09-21 18:47:42 26 53,7 28,3 410
07-09-21 20:47:42 24,3 60,5 32,7 425
07-09-21 22:47:42 21 67,9 36,1 547
07-10-21 00:47:42 19,2 73,4 38,8 688
07-10-21 02:47:42 18,2 75,9 39,8 565
07-10-21 04:47:42 17,7 77 40,2 568
07-10-21 06:47:42 17,4 78,1 40,7 591
07-10-21 08:47:42 19,5 77,2 42,1 510
07-10-21 10:47:42 22,7 69,6 38,9 443
07-10-21 12:47:42 30 50,6 28,1 419
07-10-21 14:47:42 29 49,2 26,4 414
07-10-21 16:47:42 28,1 50,2 26,7 405
07-10-21 18:47:42 20,8 76 42,4 415
07-10-21 20:47:42 20 77,6 42,9 422
07-10-21 22:47:42 19,1 80,7 44,5 455
07-11-21 00:47:42 18,3 81,4 44,2 461
07-11-21 02:47:42 17 82 43,3 460
07-11-21 04:47:42 16,3 83,1 43,3 437
07-11-21 06:47:42 15,4 85,1 43,7 427
07-11-21 08:47:42 17 84,2 45 422
07-11-21 10:47:42 22,5 71,5 40,3 416
07-11-21 12:47:42 24,9 59,3 32,2 411
07-11-21 14:47:42 27,9 52,8 28,8 414
07-11-21 16:47:42 27 47,2 23,5 416
07-11-21 18:47:42 26,4 50 25,5 412
07-11-21 20:47:42 24,5 61,3 33,5 433
07-11-21 22:47:42 21 67,7 36 482
07-12-21 00:47:42 18,2 72,8 37,4 605
07-12-21 02:47:42 16,8 75,5 38 575
07-12-21 04:47:42 15,8 76,4 37,6 559
07-12-21 06:47:42 15,1 78,4 38,3 551
07-12-21 08:47:42 21,2 75,1 42,1 461
07-12-21 10:47:42 25,4 62 34,8 414
07-12-21 12:47:42 26 60,3 33,8 402
07-12-21 14:47:42 23,8 64,4 35,6 397
07-12-21 16:47:42 24,3 64,8 36,3 400
07-12-21 18:47:42 23,8 64,7 35,8 460
07-12-21 20:47:42 23,5 72,4 41,8 414
07-12-21 22:47:42 22 73,5 41,5 477
07-13-21 00:47:42 21,2 75,9 42,7 510
07-13-21 02:47:42 20,2 76,3 42,1 580
07-13-21 04:47:42 19,5 79,2 43,7 592
07-13-21 06:47:42 19,5 79,4 43,9 633
07-13-21 08:47:42 19,7 80,8 45,2 600
07-13-21 10:47:42 20,6 80 45,4 505
07-13-21 12:47:42 20,6 81,4 46,5 412
07-13-21 14:47:42 20,4 81,5 46,4 411
07-13-21 16:47:42 21,4 81,8 47,6 417
07-13-21 18:47:42 20,7 82,8 47,7 418
07-13-21 20:47:42 20,7 82,6 47,6 431
07-13-21 22:47:42 20,2 84,2 48,4 451
07-14-21 00:47:42 20,2 84,6 48,7 472
07-14-21 02:47:42 18,5 88,6 50 421
07-14-21 04:47:42 17,9 89,5 50,1 421
07-14-21 06:47:42 17,6 89,1 49,4 424
07-14-21 08:47:42 17,4 89,6 49,6 425
07-14-21 10:47:42 18 90 50,6 421
07-14-21 12:47:42 18,1 90,5 51,1 413
07-14-21 14:47:42 17,4 91,2 50,8 411
07-14-21 16:47:42 17,2 91,5 50,8 406
07-14-21 18:47:42 17,2 92,1 51,3 410
07-14-21 20:47:42 17 92,3 51,2 407
07-14-21 22:47:42 17,2 92,7 51,7 411
07-15-21 00:47:42 17,5 93 52,3 409
07-15-21 02:47:42 18 92,3 52,4 413
07-15-21 04:47:42 17,9 92,1 52,1 414
07-15-21 06:47:42 17,6 92,1 51,7 420
07-15-21 08:47:42 17,6 92,6 52,1 412
07-15-21 10:47:42 17,9 92,2 52,2 412
07-15-21 12:47:42 19,5 91,6 53,5 412
07-15-21 14:47:42 19,4 91,1 53 418
07-15-21 16:47:42 19,4 90,8 52,7 415
07-15-21 18:47:42 19 90,6 52,1 422
07-15-21 20:47:42 18,6 90,5 51,6 422
07-15-21 22:47:42 18,5 90,4 51,4 430
07-16-21 00:47:42 18,4 90,3 51,3 428
07-16-21 02:47:42 17,9 90,4 50,8 423
07-16-21 04:47:42 17,4 90,3 50,1 426
07-16-21 06:47:42 17,1 90,3 49,8 433
07-16-21 08:47:42 17,3 90,1 49,9 420
07-16-21 10:47:42 17,6 90,1 50,2 427
07-16-21 12:47:42 18,2 89,2 50,2 417
07-16-21 14:47:42 18,6 89 50,5 413
07-16-21 16:47:42 19,3 86,3 49,1 409
07-16-21 18:47:42 19,4 83,9 47,3 414
07-16-21 20:47:42 19,4 85,6 48,7 421
07-16-21 22:47:42 17,6 86,6 47,5 460
07-17-21 00:47:42 17,4 88,5 48,7 494
07-17-21 02:47:42 17,4 88,1 48,4 502
07-17-21 04:47:42 17,6 88,8 49,2 530
07-17-21 06:47:42 17,7 88,8 49,3 464
07-17-21 08:47:42 18,1 88,4 49,4 438
07-17-21 10:47:42 19,4 86,7 49,5 417
07-17-21 12:47:42 23 80,9 48,3 415
07-17-21 14:47:42 27,9 69,1 42,4 420
07-17-21 16:47:42 30 64 39,5 420
07-17-21 18:47:42 27,7 66,8 40,4 419
07-17-21 20:47:42 24,8 73,9 44,1 427
07-17-21 22:47:42 21,7 78,3 45,1 451
07-18-21 00:47:42 18,8 81,9 45,1 473
07-18-21 02:47:42 17,4 82,7 44,3 540
07-18-21 04:47:42 15,3 83,8 42,6 634
07-18-21 06:47:42 13,9 84,9 41,6 635
07-18-21 08:47:42 19,9 89,3 52,1 454
07-18-21 10:47:42 27,7 66,4 40 429
07-18-21 12:47:42 30,1 55,6 32,5 430
07-18-21 14:47:42 31,3 51,5 29,6 431
07-18-21 16:47:42 32,5 53,6 32,1 428
07-18-21 18:47:42 30,2 50,6 28,3 430
07-18-21 20:47:42 27 62,5 36,3 431
07-18-21 22:47:42 23,6 70,5 40,4 494
07-19-21 00:47:42 20,9 75,3 42 500
07-19-21 02:47:42 18,8 78,2 42,2 644
07-19-21 04:47:42 17,1 78,8 40,9 617
07-19-21 06:47:42 15,7 81,9 41,7 591
07-19-21 08:47:42 18,7 83,4 46,2 537
07-19-21 10:47:42 26,3 63,2 36,4 432
07-19-21 12:47:42 30,5 52,5 30 425
07-19-21 14:47:42 31,7 47,5 26,4 426
07-19-21 16:47:42 30,9 47,8 26,3 428
07-19-21 18:47:42 27,4 52,1 27,9 419
07-19-21 20:47:42 24,2 60,8 32,9 419
07-19-21 22:47:42 20,5 68,7 36,3 531
07-20-21 00:47:42 17,8 75 38,7 550
07-20-21 02:47:42 16 77,8 38,9 582
07-20-21 04:47:42 14,5 79,2 38,1 644
07-20-21 06:47:42 14,4 82,3 40,3 580
07-20-21 08:47:42 16,2 82,3 42,6 527
07-20-21 10:47:42 25,8 60,7 34 419
07-20-21 12:47:42 29,6 49,2 26,7 419
07-20-21 14:47:42 31 44,4 23,4 419
07-20-21 16:47:42 31,9 44,2 23,7 419
07-20-21 18:47:42 29,3 46,2 24 417
07-20-21 20:47:42 25,3 56,4 30,1 421
07-20-21 22:47:42 21 65,4 34,1 478
07-21-21 00:47:42 18 72,6 37 566
07-21-21 02:47:42 16,2 75,3 37,2 629
07-21-21 04:47:42 14,4 78,2 37,2 675
07-21-21 06:47:42 14,2 81 39,1 594
07-21-21 08:47:42 19,2 76,3 41,1 504
07-21-21 10:47:42 26,9 57,6 32,1 431
07-21-21 12:47:42 31 42,3 21,6 418
07-21-21 14:47:42 33,3 41,2 21,8 420
07-21-21 16:47:42 34,1 39,5 20,7 420
07-21-21 18:47:42 30,2 42,7 21,5 420
07-21-21 20:47:42 26,1 50,9 26 425
07-21-21 22:47:42 21,8 59,4 29,9 471
07-22-21 00:47:42 18,4 69,4 34,9 609
07-22-21 02:47:42 16,2 73,5 35,8 615
07-22-21 04:47:42 14,5 75,5 35,3 647
07-22-21 06:47:42 13,6 78,3 36,3 635
07-22-21 08:47:42 18,3 77,7 41,3 508
07-22-21 10:47:42 26,7 57,2 31,7 429
07-22-21 12:47:42 30,2 46,4 24,7 410
07-22-21 14:47:42 31,8 42 21,8 414
07-22-21 16:47:42 33,1 40,4 21 419
07-22-21 18:47:42 30,6 43 22 417
07-22-21 20:47:42 26,6 50 25,6 420
07-22-21 22:47:42 22,4 57,4 28,8 448
07-23-21 00:47:42 19 67,1 33,7 538
07-23-21 02:47:42 16,7 72,1 35,3 572
07-23-21 04:47:42 15,2 74,6 35,5 831
07-23-21 06:47:42 14,1 77,4 36,2 595
07-23-21 08:47:42 16,8 80,4 41,8 520
07-23-21 09:59:12 22,7 68,2 37,8 566
07-23-21 11:59:12 30 49,2 27 419
07-23-21 13:59:12 32,7 45,2 25 414
07-23-21 15:59:12 34,3 43 23,9 410
07-23-21 17:59:12 32,2 46,3 25,7 411
07-23-21 19:59:12 28,1 51,2 27,5 414
07-23-21 21:59:12 24,1 58,2 30,7 425
07-23-21 23:59:12 21,8 63,2 33 478
07-24-21 01:59:12 19,5 70,4 36,8 514
07-24-21 03:59:12 18,4 72,2 37,1 490
07-24-21 05:59:12 18 74,1 38,2 572
07-24-21 07:59:12 18,3 75,9 39,9 558
07-24-21 09:59:12 18,9 77,3 41,6 492
07-24-21 11:59:12 19,8 79,6 44,3 459
07-24-21 13:59:12 20,2 82,5 47 440
07-24-21 15:59:12 21,8 84,4 50 434
07-24-21 17:59:12 22,8 82,3 49,3 418
07-24-21 19:59:12 20 84,3 48,2 435
07-24-21 21:59:12 18,7 86,5 48,6 422
07-24-21 23:59:12 18,1 85,5 47,2 469
07-25-21 01:59:12 16,9 86,1 46,3 495
07-25-21 03:59:12 16 86,2 45,3 518
07-25-21 05:59:12 15,3 86,7 44,8 495
07-25-21 07:59:12 16,5 91,3 49,8 502
07-25-21 09:59:12 23,6 85,8 52,8 428
07-25-21 11:59:12 27,6 63,8 37,8 402
07-25-21 13:59:12 28,4 56 31,8 403
07-25-21 15:59:12 24,9 62,3 34,7 398
07-25-21 17:59:12 27 58,1 32,6 398
07-25-21 19:59:12 27,1 57,9 32,5 398
07-25-21 21:59:12 25,8 60,2 33,6 396
07-25-21 23:59:12 22,7 68,3 37,9 403
07-26-21 01:59:12 21,4 73 40,6 434
07-26-21 03:59:12 19,2 76,6 41,4 453
07-26-21 05:59:12 18,1 78,3 41,6 577
07-26-21 07:59:12 16,8 79,8 41,3 550
07-26-21 09:59:12 17,6 82,4 44,2 433
07-26-21 11:59:12 19,3 80 44,2 408
07-26-21 13:59:12 22,7 66,3 36,2 404
07-26-21 15:59:12 23,8 66 36,9 402
07-26-21 17:59:12 25,9 58,3 32,1 405
07-26-21 19:59:12 25 63,9 36 404
07-26-21 21:59:12 22,1 73,6 41,7 404
07-26-21 23:59:12 20,6 81,3 46,4 416
07-27-21 01:59:12 18,5 85,1 47,3 421
07-27-21 03:59:12 17,7 84,6 46,1 471
07-27-21 05:59:12 17,4 85,2 46,2 475
07-27-21 07:59:12 16,6 85,4 45,4 516
07-27-21 09:59:12 16,3 86,1 45,6 502
07-27-21 11:59:12 18,4 87,7 49,2 452
07-27-21 13:59:12 22,7 80,7 47,9 401
07-27-21 15:59:12 23,6 72,2 41,8 398
07-27-21 17:59:12 24,6 67,5 38,7 398
07-27-21 19:59:12 20,9 77,5 43,7 399
07-27-21 21:59:12 21,2 74 41,2 394
07-27-21 23:59:12 19,7 72,1 38,3 397
07-28-21 01:59:12 19,1 77,9 42,3 413
07-28-21 03:59:12 18 80,2 43 424
07-28-21 05:59:12 18 82,4 44,7 440
07-28-21 07:59:12 18 83,3 45,4 414
07-28-21 09:59:12 17,9 85,3 46,8 412
07-28-21 11:59:12 20,2 84,7 48,7 410
07-28-21 13:59:12 23,2 66,3 36,6 398
07-28-21 15:59:12 22,5 60,9 31,7 397
07-28-21 17:59:12 24,2 58,4 30,9 395
07-28-21 19:59:12 23,9 53,6 26,8 399
07-28-21 21:59:12 22 59 29,8 396
07-28-21 23:59:12 21 61,7 31,1 397
07-29-21 01:59:12 19,1 66,5 33,3 409
07-29-21 03:59:12 18,4 69,9 35,3 419
07-29-21 05:59:12 17,6 76,3 39,5 410
07-29-21 07:59:12 16,6 79,4 40,8 428
07-29-21 09:59:12 16 80,7 41,1 414
07-29-21 11:59:12 17 78,3 40,4 402
07-29-21 13:59:12 20 65,9 33,6 393
07-29-21 15:59:12 22,5 55,3 27,1 393
07-29-21 17:59:12 23,7 50,3 23,9 393
07-29-21 19:59:12 22,5 50,7 23,4 392
07-29-21 21:59:12 22,8 53,8 26,1 389
07-29-21 23:59:12 21,6 59,6 29,9 397
07-30-21 01:59:12 18,6 67,9 33,9 468
07-30-21 03:59:12 16,2 72,6 35,1 549
07-30-21 05:59:12 14,5 75,2 35,1 592
07-30-21 07:59:12 13,2 76,8 34,6 594
07-30-21 09:59:12 13 78,8 35,8 535
07-30-21 11:59:12 18 77,8 41,1 462
07-30-21 13:59:12 25,3 53,6 27,7 388
07-30-21 15:59:12 26,5 49,1 24,8 390
07-30-21 17:59:12 24,2 53,7 27,1 393
07-30-21 19:59:12 25,7 52,3 26,9 392
07-30-21 21:59:12 23,5 54,9 27,6 396
07-30-21 23:59:12 20,6 53,4 24,1 390
07-31-21 01:59:12 19 60,9 28,7 397
07-31-21 03:59:12 17,6 63,1 29,2 392
07-31-21 05:59:12 17,1 67,3 32 391
07-31-21 07:59:12 16,4 71,2 34,2 393
07-31-21 09:59:12 16,3 73,3 35,8 407
07-31-21 11:59:12 17,4 73,3 37 406
07-31-21 13:59:12 19,4 68,5 35,2 402
07-31-21 15:59:12 20,8 64,5 33,2 400
07-31-21 17:59:12 22 61,2 31,5 400
07-31-21 19:59:12 23,6 59,3 31,2 401
07-31-21 21:59:12 21,3 68,9 37,2 398
07-31-21 23:59:12 21,2 69 37,2 409
08-01-21 01:59:12 19,7 71,5 37,8 451
08-01-21 03:59:12 17,2 74,9 38 454
08-01-21 05:59:12 15,2 74,8 35,6 535
08-01-21 07:59:12 13,7 78 36,2 565
08-01-21 09:59:12 13,9 78,5 36,8 504
08-01-21 11:59:12 17,9 75,2 39 430
08-01-21 13:59:12 19,3 72,5 38,2 410
08-01-21 15:59:12 21,4 64,5 33,7 403
08-01-21 17:59:12 24,3 58,1 30,8 403
Moyenne linéaire 456,4633507853

Partageons !

Laisser un commentaire

Votre adresse de messagerie ne sera pas publiée. Les champs obligatoires sont indiqués avec *

7 × = 21